Archival Weather

Biggin Hill

Biggin Hill, United Kingdom (EGKB)

Report from: Sunday, September 25, 2022 8:50 AM BST
Current time: Saturday, March 2, 2024 10:18 AM GMT

Current weather – Weather history – Daily summaries
Weather forecast

Temperature9.0°C (48.2°F)
Wind chill8.0°C (46.4°F)
Dew point8.0°C (46.4°F)
Winds 4 kts (2.1 m/s, 4.6 mph) Vrb
Winds variableWinds variable from Southwest (220°) to North (350°)
Visibility6.2 mi. (10 km)
Clouds Few clouds 500 ft. (152 m)
Altimeter30.12 in.Hg (1020 mB)
Relative humidity93 %
Density altitude-794 ft. (-242 m)
Flight conditions Visual Meteorological Conditions
Raw dataEGKB 250750Z 32004KT 220V350 9999 FEW005 09/08 Q1020
An error has occurred. This application may no longer respond until reloaded. Reload 🗙